AFR1047 EPWA-LFPG
Flight info
| Callsign | AFR1047 |
|---|---|
| Flight time | 2h 4m |
| Altitude | 38000 |
| Route | SOXER DCT VAMPU DCT BAXIS DCT UVIVI DCT 512516N0163014E DCT NAROX DCT 510013N0135940E 503942N0123218E 502337N0112335E DCT KOMIB DCT LOHRE DCT 495745N0075950E DCT BETEX DCT IDOSA UN857 TOLVU DCT RAPOR DCT VEDUS |
| Aircraft | A319/M-SDE3FGHIRWY/LB1 |
Departure
| Time | 2026-05-04 17:14 |
|---|---|
| Airport | Warsaw Chopin Airport (EPWA) |
Arrival
| Time | 2026-05-04 19:19 |
|---|---|
| Airport | Charles de Gaulle International Airport (LFPG) |
| Time | Latitude | Longitude | Altitude | Speed | Heading |
|---|---|---|---|---|---|
| 2026-05-04 16:45 | 52.16911 | 20.97213 | 365 ft | 0 kts | 76° |
| 2026-05-04 17:06 | 52.16906 | 20.97179 | 365 ft | 2 kts | 76° |
| 2026-05-04 17:06 | 52.16902 | 20.97151 | 365 ft | 2 kts | 76° |
| 2026-05-04 17:07 | 52.16895 | 20.97104 | 365 ft | 2 kts | 76° |
| 2026-05-04 17:07 | 52.16894 | 20.97096 | 365 ft | 2 kts | 77° |
| 2026-05-04 17:07 | 52.16904 | 20.97062 | 365 ft | 2 kts | 156° |
| 2026-05-04 17:07 | 52.16917 | 20.97052 | 365 ft | 2 kts | 149° |
| 2026-05-04 17:08 | 52.16922 | 20.97048 | 365 ft | 0 kts | 150° |
| 2026-05-04 17:11 | 52.16907 | 20.97064 | 365 ft | 5 kts | 141° |
| 2026-05-04 17:11 | 52.16766 | 20.97221 | 365 ft | 15 kts | 153° |
| 2026-05-04 17:12 | 52.16660 | 20.97239 | 365 ft | 15 kts | 182° |
| 2026-05-04 17:12 | 52.16536 | 20.97503 | 365 ft | 16 kts | 115° |
| 2026-05-04 17:13 | 52.16376 | 20.97776 | 365 ft | 9 kts | 205° |
| 2026-05-04 17:14 | 52.16423 | 20.97244 | 365 ft | 70 kts | 295° |
| 2026-05-04 17:14 | 52.16723 | 20.96183 | 365 ft | 134 kts | 294° |
| 2026-05-04 17:14 | 52.17651 | 20.92986 | 1224 ft | 161 kts | 294° |
| 2026-05-04 17:15 | 52.18106 | 20.91386 | 1982 ft | 154 kts | 292° |
| 2026-05-04 17:15 | 52.18301 | 20.88175 | 3220 ft | 143 kts | 262° |
| 2026-05-04 17:16 | 52.18050 | 20.84908 | 4149 ft | 158 kts | 262° |
| 2026-05-04 17:16 | 52.17761 | 20.78834 | 5323 ft | 203 kts | 251° |
| 2026-05-04 17:17 | 52.17350 | 20.76613 | 5941 ft | 207 kts | 252° |
| 2026-05-04 17:17 | 52.16117 | 20.68907 | 7291 ft | 261 kts | 255° |
| 2026-05-04 17:18 | 52.15662 | 20.65992 | 8044 ft | 266 kts | 255° |
| 2026-05-04 17:18 | 52.14758 | 20.60125 | 9849 ft | 269 kts | 255° |
| 2026-05-04 17:19 | 52.13822 | 20.54044 | 11029 ft | 291 kts | 255° |
| 2026-05-04 17:19 | 52.12792 | 20.47327 | 11890 ft | 319 kts | 256° |
| 2026-05-04 17:20 | 52.11723 | 20.40347 | 13376 ft | 324 kts | 255° |
| 2026-05-04 17:20 | 52.10610 | 20.33168 | 14762 ft | 331 kts | 255° |
| 2026-05-04 17:20 | 52.10045 | 20.29550 | 15400 ft | 336 kts | 255° |
| 2026-05-04 17:21 | 52.08880 | 20.22113 | 16657 ft | 345 kts | 255° |
| 2026-05-04 17:21 | 52.07878 | 20.15714 | 17671 ft | 353 kts | 256° |
| 2026-05-04 17:22 | 52.07067 | 20.10548 | 18427 ft | 358 kts | 256° |
| 2026-05-04 17:22 | 52.06447 | 20.06624 | 18982 ft | 363 kts | 256° |
| 2026-05-04 17:23 | 52.04526 | 19.94611 | 20734 ft | 371 kts | 254° |
| 2026-05-04 17:23 | 52.03750 | 19.90656 | 21284 ft | 373 kts | 251° |
| 2026-05-04 17:23 | 52.02013 | 19.82597 | 22367 ft | 380 kts | 251° |
| 2026-05-04 17:24 | 52.01143 | 19.78576 | 22876 ft | 383 kts | 251° |
| 2026-05-04 17:24 | 51.98460 | 19.66251 | 24386 ft | 391 kts | 251° |
| 2026-05-04 17:25 | 51.97557 | 19.62124 | 24863 ft | 393 kts | 252° |
| 2026-05-04 17:25 | 51.95703 | 19.53664 | 25794 ft | 398 kts | 252° |
| 2026-05-04 17:26 | 51.93826 | 19.45138 | 26662 ft | 403 kts | 252° |
| 2026-05-04 17:26 | 51.90968 | 19.32221 | 27903 ft | 410 kts | 251° |
| 2026-05-04 17:27 | 51.89028 | 19.23499 | 28671 ft | 415 kts | 252° |
| 2026-05-04 17:27 | 51.87050 | 19.14649 | 29416 ft | 419 kts | 252° |
| 2026-05-04 17:28 | 51.85098 | 19.05794 | 30177 ft | 421 kts | 252° |
| 2026-05-04 17:29 | 51.82190 | 18.92477 | 31685 ft | 414 kts | 252° |
| 2026-05-04 17:29 | 51.79314 | 18.79428 | 32953 ft | 411 kts | 252° |
| 2026-05-04 17:30 | 51.76429 | 18.66421 | 34082 ft | 409 kts | 252° |
| 2026-05-04 17:31 | 51.74509 | 18.57801 | 34810 ft | 407 kts | 252° |
| 2026-05-04 17:31 | 51.71639 | 18.44990 | 35626 ft | 406 kts | 252° |
| 2026-05-04 17:32 | 51.69714 | 18.36435 | 36090 ft | 405 kts | 252° |
| 2026-05-04 17:33 | 51.66813 | 18.23612 | 36624 ft | 408 kts | 251° |
| 2026-05-04 17:33 | 51.65834 | 18.19302 | 36796 ft | 409 kts | 251° |
| 2026-05-04 17:34 | 51.62877 | 18.06339 | 37350 ft | 412 kts | 251° |
| 2026-05-04 17:34 | 51.61884 | 18.02010 | 37515 ft | 413 kts | 251° |
| 2026-05-04 17:35 | 51.59041 | 17.88942 | 37929 ft | 415 kts | 255° |
| 2026-05-04 17:35 | 51.57734 | 17.79856 | 37926 ft | 415 kts | 260° |
| 2026-05-04 17:36 | 51.56661 | 17.70787 | 37926 ft | 414 kts | 260° |
| 2026-05-04 17:36 | 51.55575 | 17.61658 | 37925 ft | 415 kts | 260° |
| 2026-05-04 17:37 | 51.54491 | 17.52625 | 37926 ft | 414 kts | 260° |
| 2026-05-04 17:37 | 51.53395 | 17.43538 | 37923 ft | 414 kts | 260° |
| 2026-05-04 17:38 | 51.52289 | 17.34456 | 37925 ft | 415 kts | 259° |
| 2026-05-04 17:38 | 51.51174 | 17.25346 | 37924 ft | 415 kts | 259° |
| 2026-05-04 17:39 | 51.49499 | 17.11769 | 37926 ft | 415 kts | 259° |
| 2026-05-04 17:39 | 51.48362 | 17.02651 | 37921 ft | 415 kts | 259° |
| 2026-05-04 17:40 | 51.47228 | 16.93617 | 37921 ft | 414 kts | 259° |
| 2026-05-04 17:40 | 51.46083 | 16.84554 | 37920 ft | 414 kts | 259° |
| 2026-05-04 17:41 | 51.44940 | 16.75541 | 37925 ft | 414 kts | 259° |
| 2026-05-04 17:41 | 51.43780 | 16.66465 | 37929 ft | 414 kts | 259° |
| 2026-05-04 17:42 | 51.42809 | 16.58917 | 37923 ft | 414 kts | 259° |
| 2026-05-04 17:42 | 51.41443 | 16.48395 | 37926 ft | 414 kts | 258° |
| 2026-05-04 17:43 | 51.40217 | 16.39442 | 37930 ft | 414 kts | 258° |
| 2026-05-04 17:43 | 51.38975 | 16.30481 | 37927 ft | 414 kts | 257° |
| 2026-05-04 17:44 | 51.37717 | 16.21433 | 37931 ft | 414 kts | 257° |
| 2026-05-04 17:44 | 51.36466 | 16.12473 | 37936 ft | 413 kts | 258° |
| 2026-05-04 17:45 | 51.35213 | 16.03547 | 37943 ft | 413 kts | 258° |
| 2026-05-04 17:45 | 51.33950 | 15.94597 | 37938 ft | 412 kts | 258° |
| 2026-05-04 17:46 | 51.32675 | 15.85617 | 37936 ft | 412 kts | 258° |
| 2026-05-04 17:46 | 51.31412 | 15.76768 | 37935 ft | 412 kts | 258° |
| 2026-05-04 17:47 | 51.30123 | 15.67799 | 37936 ft | 412 kts | 257° |
| 2026-05-04 17:47 | 51.28834 | 15.58882 | 37934 ft | 412 kts | 257° |
| 2026-05-04 17:48 | 51.27541 | 15.49990 | 37931 ft | 413 kts | 258° |
| 2026-05-04 17:48 | 51.26229 | 15.41024 | 37938 ft | 413 kts | 257° |
| 2026-05-04 17:49 | 51.24921 | 15.32131 | 37937 ft | 412 kts | 257° |
| 2026-05-04 17:49 | 51.23604 | 15.23222 | 37928 ft | 412 kts | 257° |
| 2026-05-04 17:50 | 51.22281 | 15.14322 | 37931 ft | 412 kts | 257° |
| 2026-05-04 17:50 | 51.20950 | 15.05433 | 37936 ft | 412 kts | 257° |
| 2026-05-04 17:51 | 51.19426 | 14.96588 | 37936 ft | 412 kts | 253° |
| 2026-05-04 17:51 | 51.17741 | 14.87866 | 37935 ft | 412 kts | 253° |
| 2026-05-04 17:52 | 51.16057 | 14.79181 | 37939 ft | 412 kts | 253° |
| 2026-05-04 17:52 | 51.14357 | 14.70460 | 37943 ft | 412 kts | 253° |
| 2026-05-04 17:53 | 51.12652 | 14.61768 | 37940 ft | 412 kts | 253° |
| 2026-05-04 17:53 | 51.10937 | 14.53055 | 37937 ft | 412 kts | 253° |
| 2026-05-04 17:54 | 51.09214 | 14.44334 | 37943 ft | 412 kts | 253° |
| 2026-05-04 17:54 | 51.07493 | 14.35662 | 37946 ft | 411 kts | 253° |
| 2026-05-04 17:55 | 51.05756 | 14.26952 | 37944 ft | 412 kts | 252° |
| 2026-05-04 17:55 | 51.04024 | 14.18307 | 37945 ft | 411 kts | 252° |
| 2026-05-04 17:56 | 51.02280 | 14.09649 | 37940 ft | 411 kts | 252° |
| 2026-05-04 17:56 | 51.00823 | 14.02443 | 37938 ft | 410 kts | 252° |
| 2026-05-04 17:57 | 50.98620 | 13.92476 | 37936 ft | 410 kts | 250° |
| 2026-05-04 17:57 | 50.96630 | 13.83976 | 37939 ft | 411 kts | 250° |
| 2026-05-04 17:58 | 50.94641 | 13.75522 | 37940 ft | 411 kts | 250° |
| 2026-05-04 17:58 | 50.92630 | 13.67014 | 37945 ft | 411 kts | 250° |
| 2026-05-04 17:59 | 50.90623 | 13.58553 | 37943 ft | 410 kts | 250° |
| 2026-05-04 18:00 | 50.87598 | 13.45861 | 37951 ft | 410 kts | 250° |
| 2026-05-04 18:00 | 50.85578 | 13.37438 | 37950 ft | 411 kts | 250° |
| 2026-05-04 18:01 | 50.83537 | 13.28952 | 37946 ft | 411 kts | 249° |
| 2026-05-04 18:01 | 50.81500 | 13.20520 | 37947 ft | 410 kts | 249° |
| 2026-05-04 18:02 | 50.78427 | 13.07848 | 37945 ft | 410 kts | 249° |
| 2026-05-04 18:02 | 50.76385 | 12.99470 | 37947 ft | 410 kts | 249° |
| 2026-05-04 18:03 | 50.74312 | 12.91003 | 37947 ft | 410 kts | 249° |
| 2026-05-04 18:03 | 50.72253 | 12.82626 | 37944 ft | 410 kts | 249° |
| 2026-05-04 18:04 | 50.70184 | 12.74236 | 37946 ft | 410 kts | 249° |
| 2026-05-04 18:05 | 50.67077 | 12.61703 | 37941 ft | 411 kts | 249° |
| 2026-05-04 18:05 | 50.64994 | 12.53341 | 37944 ft | 411 kts | 249° |
| 2026-05-04 18:06 | 50.62091 | 12.40605 | 37940 ft | 411 kts | 251° |
| 2026-05-04 18:06 | 50.60175 | 12.32116 | 37938 ft | 412 kts | 250° |
| 2026-05-04 18:07 | 50.58230 | 12.23579 | 37928 ft | 412 kts | 250° |
| 2026-05-04 18:07 | 50.56295 | 12.15133 | 37928 ft | 413 kts | 250° |
| 2026-05-04 18:08 | 50.54335 | 12.06620 | 37931 ft | 413 kts | 250° |
| 2026-05-04 18:08 | 50.52375 | 11.98138 | 37938 ft | 413 kts | 250° |
| 2026-05-04 18:09 | 50.48430 | 11.81161 | 37942 ft | 413 kts | 250° |
| 2026-05-04 18:10 | 50.46785 | 11.74128 | 37949 ft | 413 kts | 250° |
| 2026-05-04 18:10 | 50.44466 | 11.64247 | 37947 ft | 412 kts | 250° |
| 2026-05-04 18:11 | 50.42484 | 11.55847 | 37951 ft | 411 kts | 250° |
| 2026-05-04 18:11 | 50.40491 | 11.47435 | 37945 ft | 411 kts | 250° |
| 2026-05-04 18:12 | 50.38491 | 11.39034 | 37943 ft | 411 kts | 249° |
| 2026-05-04 18:12 | 50.36315 | 11.30763 | 37939 ft | 411 kts | 247° |
| 2026-05-04 18:13 | 50.34117 | 11.22500 | 37936 ft | 411 kts | 247° |
| 2026-05-04 18:14 | 50.30808 | 11.10133 | 37927 ft | 410 kts | 247° |
| 2026-05-04 18:14 | 50.28591 | 11.01885 | 37928 ft | 410 kts | 247° |
| 2026-05-04 18:15 | 50.24174 | 10.85543 | 37931 ft | 409 kts | 247° |
| 2026-05-04 18:16 | 50.21935 | 10.77306 | 37939 ft | 409 kts | 247° |
| 2026-05-04 18:16 | 50.19704 | 10.69124 | 37945 ft | 409 kts | 247° |
| 2026-05-04 18:17 | 50.16356 | 10.56902 | 37944 ft | 409 kts | 246° |
| 2026-05-04 18:18 | 50.12986 | 10.44670 | 37943 ft | 409 kts | 246° |
| 2026-05-04 18:18 | 50.11120 | 10.37922 | 37945 ft | 408 kts | 246° |
| 2026-05-04 18:19 | 50.08234 | 10.23832 | 37937 ft | 409 kts | 256° |
| 2026-05-04 18:19 | 50.07405 | 10.15061 | 37931 ft | 411 kts | 263° |
| 2026-05-04 18:20 | 50.07207 | 10.06189 | 37939 ft | 411 kts | 266° |
| 2026-05-04 18:20 | 50.07146 | 9.97251 | 37940 ft | 412 kts | 266° |
| 2026-05-04 18:21 | 50.07080 | 9.88346 | 37934 ft | 412 kts | 266° |
| 2026-05-04 18:21 | 50.07006 | 9.79373 | 37933 ft | 413 kts | 266° |
| 2026-05-04 18:22 | 50.06925 | 9.70453 | 37942 ft | 413 kts | 266° |
| 2026-05-04 18:22 | 50.06837 | 9.61538 | 37948 ft | 413 kts | 266° |
| 2026-05-04 18:23 | 50.06741 | 9.52595 | 37949 ft | 413 kts | 266° |
| 2026-05-04 18:23 | 50.06344 | 9.43718 | 37951 ft | 411 kts | 262° |
| 2026-05-04 18:24 | 50.05717 | 9.34935 | 37951 ft | 412 kts | 261° |
| 2026-05-04 18:24 | 50.05065 | 9.25989 | 37948 ft | 412 kts | 261° |
| 2026-05-04 18:25 | 50.04417 | 9.17186 | 37949 ft | 412 kts | 261° |
| 2026-05-04 18:25 | 50.03758 | 9.08313 | 37947 ft | 413 kts | 261° |
| 2026-05-04 18:26 | 50.03090 | 8.99403 | 37949 ft | 413 kts | 261° |
| 2026-05-04 18:26 | 50.02533 | 8.92060 | 37940 ft | 413 kts | 261° |
| 2026-05-04 18:27 | 50.01852 | 8.83153 | 37946 ft | 413 kts | 261° |
| 2026-05-04 18:27 | 50.01166 | 8.74289 | 37950 ft | 414 kts | 260° |
| 2026-05-04 18:28 | 50.00359 | 8.63959 | 37956 ft | 414 kts | 260° |
| 2026-05-04 18:28 | 49.99652 | 8.55008 | 37951 ft | 414 kts | 260° |
| 2026-05-04 18:29 | 49.98937 | 8.46066 | 37946 ft | 415 kts | 260° |
| 2026-05-04 18:29 | 49.98219 | 8.37173 | 37955 ft | 415 kts | 261° |
| 2026-05-04 18:30 | 49.97127 | 8.23799 | 37954 ft | 415 kts | 260° |
| 2026-05-04 18:31 | 49.96407 | 8.15081 | 37959 ft | 415 kts | 259° |
| 2026-05-04 18:31 | 49.95661 | 8.06155 | 37947 ft | 415 kts | 259° |
| 2026-05-04 18:32 | 49.94916 | 7.97290 | 37959 ft | 417 kts | 259° |
| 2026-05-04 18:32 | 49.94203 | 7.88341 | 37945 ft | 417 kts | 260° |
| 2026-05-04 18:33 | 49.93489 | 7.79412 | 37952 ft | 417 kts | 260° |
| 2026-05-04 18:33 | 49.92764 | 7.70451 | 37950 ft | 417 kts | 260° |
| 2026-05-04 18:34 | 49.92032 | 7.61538 | 37941 ft | 417 kts | 260° |
| 2026-05-04 18:34 | 49.91294 | 7.52636 | 37941 ft | 416 kts | 260° |
| 2026-05-04 18:35 | 49.90549 | 7.43716 | 37943 ft | 416 kts | 260° |
| 2026-05-04 18:35 | 49.89799 | 7.34821 | 37958 ft | 416 kts | 259° |
| 2026-05-04 18:36 | 49.89039 | 7.25915 | 37960 ft | 417 kts | 259° |
| 2026-05-04 18:36 | 49.88276 | 7.17048 | 37952 ft | 416 kts | 259° |
| 2026-05-04 18:37 | 49.87501 | 7.08116 | 37952 ft | 417 kts | 259° |
| 2026-05-04 18:37 | 49.86724 | 6.99242 | 37952 ft | 417 kts | 259° |
| 2026-05-04 18:38 | 49.85938 | 6.90338 | 37959 ft | 417 kts | 259° |
| 2026-05-04 18:38 | 49.85141 | 6.81424 | 37962 ft | 417 kts | 259° |
| 2026-05-04 18:39 | 49.84340 | 6.72530 | 37952 ft | 417 kts | 259° |
| 2026-05-04 18:39 | 49.83534 | 6.63652 | 37955 ft | 418 kts | 259° |
| 2026-05-04 18:40 | 49.82718 | 6.54770 | 37957 ft | 418 kts | 259° |
| 2026-05-04 18:40 | 49.81897 | 6.45892 | 37954 ft | 419 kts | 259° |
| 2026-05-04 18:41 | 49.80870 | 6.37081 | 37958 ft | 417 kts | 256° |
| 2026-05-04 18:41 | 49.79726 | 6.28402 | 37959 ft | 417 kts | 255° |
| 2026-05-04 18:42 | 49.78555 | 6.19576 | 37959 ft | 418 kts | 255° |
| 2026-05-04 18:42 | 49.77575 | 6.12237 | 37962 ft | 419 kts | 255° |
| 2026-05-04 18:43 | 49.76194 | 6.01958 | 37954 ft | 419 kts | 255° |
| 2026-05-04 18:43 | 49.75002 | 5.93140 | 37957 ft | 418 kts | 255° |
| 2026-05-04 18:44 | 49.73548 | 5.84491 | 37932 ft | 416 kts | 250° |
| 2026-05-04 18:44 | 49.71628 | 5.76048 | 37947 ft | 416 kts | 248° |
| 2026-05-04 18:45 | 49.69679 | 5.67661 | 37937 ft | 417 kts | 248° |
| 2026-05-04 18:45 | 49.67710 | 5.59232 | 37939 ft | 417 kts | 248° |
| 2026-05-04 18:46 | 49.65733 | 5.50797 | 37622 ft | 416 kts | 248° |
| 2026-05-04 18:46 | 49.65083 | 5.48021 | 37455 ft | 415 kts | 248° |
| 2026-05-04 18:46 | 49.63780 | 5.42487 | 37038 ft | 410 kts | 248° |
| 2026-05-04 18:46 | 49.62800 | 5.38326 | 36611 ft | 407 kts | 247° |
| 2026-05-04 18:47 | 49.61871 | 5.34238 | 36189 ft | 407 kts | 248° |
| 2026-05-04 18:47 | 49.61050 | 5.30029 | 35628 ft | 412 kts | 251° |
| 2026-05-04 18:47 | 49.60379 | 5.25701 | 34963 ft | 419 kts | 253° |
| 2026-05-04 18:47 | 49.59860 | 5.21305 | 34151 ft | 424 kts | 256° |
| 2026-05-04 18:48 | 49.59489 | 5.16740 | 33371 ft | 427 kts | 259° |
| 2026-05-04 18:48 | 49.59287 | 5.12218 | 32644 ft | 429 kts | 262° |
| 2026-05-04 18:48 | 49.59248 | 5.07600 | 31922 ft | 430 kts | 264° |
| 2026-05-04 18:48 | 49.59279 | 5.03001 | 31184 ft | 430 kts | 265° |
| 2026-05-04 18:49 | 49.59321 | 4.98369 | 30431 ft | 430 kts | 265° |
| 2026-05-04 18:49 | 49.59360 | 4.93769 | 29650 ft | 429 kts | 265° |
| 2026-05-04 18:49 | 49.59393 | 4.89190 | 29015 ft | 425 kts | 265° |
| 2026-05-04 18:49 | 49.59428 | 4.84637 | 28531 ft | 419 kts | 265° |
| 2026-05-04 18:50 | 49.59460 | 4.80172 | 28039 ft | 413 kts | 266° |
| 2026-05-04 18:50 | 49.59486 | 4.75794 | 27694 ft | 412 kts | 266° |
| 2026-05-04 18:50 | 49.59509 | 4.71364 | 27714 ft | 416 kts | 266° |
| 2026-05-04 18:50 | 49.59533 | 4.66917 | 27739 ft | 417 kts | 266° |
| 2026-05-04 18:51 | 49.59555 | 4.62478 | 27763 ft | 418 kts | 266° |
| 2026-05-04 18:51 | 49.59574 | 4.58014 | 27776 ft | 419 kts | 266° |
| 2026-05-04 18:51 | 49.59592 | 4.53480 | 27668 ft | 419 kts | 266° |
| 2026-05-04 18:51 | 49.59608 | 4.49018 | 27068 ft | 416 kts | 267° |
| 2026-05-04 18:52 | 49.59620 | 4.44581 | 26512 ft | 412 kts | 267° |
| 2026-05-04 18:52 | 49.59633 | 4.40178 | 25980 ft | 407 kts | 267° |
| 2026-05-04 18:52 | 49.59643 | 4.35870 | 25468 ft | 402 kts | 268° |
| 2026-05-04 18:52 | 49.59650 | 4.31586 | 24956 ft | 397 kts | 267° |
| 2026-05-04 18:53 | 49.59655 | 4.27351 | 24452 ft | 393 kts | 267° |
| 2026-05-04 18:53 | 49.59658 | 4.23148 | 23928 ft | 390 kts | 268° |
| 2026-05-04 18:53 | 49.59660 | 4.20411 | 23599 ft | 388 kts | 268° |
| 2026-05-04 18:53 | 49.59663 | 4.14900 | 22925 ft | 384 kts | 268° |
| 2026-05-04 18:54 | 49.59625 | 4.10787 | 22415 ft | 381 kts | 263° |
| 2026-05-04 18:54 | 49.59133 | 4.06803 | 21902 ft | 376 kts | 251° |
| 2026-05-04 18:54 | 49.58127 | 4.03125 | 21434 ft | 371 kts | 240° |
| 2026-05-04 18:54 | 49.56785 | 3.99774 | 20969 ft | 368 kts | 236° |
| 2026-05-04 18:55 | 49.55379 | 3.96467 | 20486 ft | 367 kts | 236° |
| 2026-05-04 18:55 | 49.52593 | 3.89932 | 19520 ft | 364 kts | 236° |
| 2026-05-04 18:55 | 49.51214 | 3.86680 | 19035 ft | 363 kts | 236° |
| 2026-05-04 18:56 | 49.49831 | 3.83409 | 18549 ft | 362 kts | 236° |
| 2026-05-04 18:56 | 49.48509 | 3.80137 | 18069 ft | 361 kts | 240° |
| 2026-05-04 18:56 | 49.47436 | 3.76675 | 17595 ft | 361 kts | 247° |
| 2026-05-04 18:56 | 49.46640 | 3.73011 | 17124 ft | 359 kts | 253° |
| 2026-05-04 18:57 | 49.46005 | 3.69322 | 16656 ft | 359 kts | 255° |
| 2026-05-04 18:57 | 49.45396 | 3.65630 | 16187 ft | 358 kts | 255° |
| 2026-05-04 18:57 | 49.44782 | 3.61921 | 15785 ft | 358 kts | 255° |
| 2026-05-04 18:57 | 49.44160 | 3.58206 | 15785 ft | 363 kts | 255° |
| 2026-05-04 18:58 | 49.43523 | 3.54442 | 15800 ft | 364 kts | 255° |
| 2026-05-04 18:58 | 49.42887 | 3.50707 | 15690 ft | 365 kts | 255° |
| 2026-05-04 18:58 | 49.42218 | 3.46910 | 15158 ft | 364 kts | 253° |
| 2026-05-04 18:58 | 49.41423 | 3.43275 | 14736 ft | 360 kts | 249° |
| 2026-05-04 18:59 | 49.40484 | 3.39686 | 14740 ft | 360 kts | 247° |
| 2026-05-04 18:59 | 49.39534 | 3.36127 | 14764 ft | 360 kts | 247° |
| 2026-05-04 18:59 | 49.38584 | 3.32583 | 14788 ft | 360 kts | 246° |
| 2026-05-04 18:59 | 49.37632 | 3.29037 | 14812 ft | 361 kts | 246° |
| 2026-05-04 19:00 | 49.36672 | 3.25473 | 14837 ft | 361 kts | 246° |
| 2026-05-04 19:00 | 49.36026 | 3.23076 | 14854 ft | 361 kts | 246° |
| 2026-05-04 19:00 | 49.34743 | 3.18317 | 14889 ft | 361 kts | 246° |
| 2026-05-04 19:00 | 49.33783 | 3.14755 | 14907 ft | 361 kts | 246° |
| 2026-05-04 19:01 | 49.32825 | 3.11211 | 14916 ft | 361 kts | 246° |
| 2026-05-04 19:01 | 49.31858 | 3.07643 | 14922 ft | 361 kts | 246° |
| 2026-05-04 19:01 | 49.30893 | 3.04083 | 14921 ft | 361 kts | 246° |
| 2026-05-04 19:01 | 49.29932 | 3.00541 | 14923 ft | 361 kts | 246° |
| 2026-05-04 19:02 | 49.28975 | 2.97019 | 14878 ft | 357 kts | 246° |
| 2026-05-04 19:02 | 49.28014 | 2.93486 | 14317 ft | 359 kts | 246° |
| 2026-05-04 19:02 | 49.27037 | 2.89916 | 13498 ft | 367 kts | 246° |
| 2026-05-04 19:02 | 49.26055 | 2.86324 | 12889 ft | 366 kts | 246° |
| 2026-05-04 19:03 | 49.25076 | 2.82747 | 12339 ft | 364 kts | 247° |
| 2026-05-04 19:03 | 49.24107 | 2.79207 | 11784 ft | 362 kts | 247° |
| 2026-05-04 19:03 | 49.23137 | 2.75674 | 11257 ft | 359 kts | 247° |
| 2026-05-04 19:03 | 49.22188 | 2.72191 | 10958 ft | 348 kts | 247° |
| 2026-05-04 19:04 | 49.21248 | 2.68791 | 10913 ft | 347 kts | 247° |
| 2026-05-04 19:04 | 49.20316 | 2.65407 | 10919 ft | 347 kts | 247° |
| 2026-05-04 19:04 | 49.19383 | 2.61998 | 10911 ft | 348 kts | 246° |
| 2026-05-04 19:04 | 49.18531 | 2.58557 | 10883 ft | 349 kts | 253° |
| 2026-05-04 19:05 | 49.18049 | 2.54879 | 10893 ft | 349 kts | 264° |
| 2026-05-04 19:05 | 49.17903 | 2.51197 | 10745 ft | 345 kts | 269° |
| 2026-05-04 19:05 | 49.17840 | 2.47637 | 10437 ft | 325 kts | 269° |
| 2026-05-04 19:05 | 49.17797 | 2.44348 | 10208 ft | 301 kts | 269° |
| 2026-05-04 19:06 | 49.17736 | 2.41158 | 10082 ft | 295 kts | 270° |
| 2026-05-04 19:06 | 49.17687 | 2.38060 | 9933 ft | 292 kts | 269° |
| 2026-05-04 19:06 | 49.17630 | 2.35005 | 9607 ft | 294 kts | 269° |
| 2026-05-04 19:06 | 49.17573 | 2.31797 | 9085 ft | 296 kts | 270° |
| 2026-05-04 19:07 | 49.17522 | 2.28654 | 8665 ft | 294 kts | 271° |
| 2026-05-04 19:07 | 49.17499 | 2.25540 | 8301 ft | 292 kts | 271° |
| 2026-05-04 19:07 | 49.17469 | 2.22450 | 7958 ft | 291 kts | 271° |
| 2026-05-04 19:07 | 49.17421 | 2.19355 | 7598 ft | 288 kts | 266° |
| 2026-05-04 19:08 | 49.16918 | 2.16440 | 7193 ft | 286 kts | 239° |
| 2026-05-04 19:08 | 49.15630 | 2.14173 | 6848 ft | 281 kts | 217° |
| 2026-05-04 19:08 | 49.14078 | 2.12434 | 6500 ft | 279 kts | 213° |
| 2026-05-04 19:08 | 49.12477 | 2.10752 | 6146 ft | 278 kts | 212° |
| 2026-05-04 19:09 | 49.10863 | 2.09097 | 5788 ft | 277 kts | 212° |
| 2026-05-04 19:09 | 49.09259 | 2.07504 | 5444 ft | 276 kts | 212° |
| 2026-05-04 19:09 | 49.07597 | 2.06044 | 5083 ft | 273 kts | 198° |
| 2026-05-04 19:09 | 49.05773 | 2.05751 | 4952 ft | 258 kts | 169° |
| 2026-05-04 19:10 | 49.04626 | 2.06087 | 4957 ft | 247 kts | 164° |
| 2026-05-04 19:10 | 49.03011 | 2.06715 | 4945 ft | 232 kts | 162° |
| 2026-05-04 19:10 | 49.00996 | 2.07592 | 4952 ft | 220 kts | 162° |
| 2026-05-04 19:10 | 48.99627 | 2.08552 | 4949 ft | 215 kts | 135° |
| 2026-05-04 19:11 | 48.98667 | 2.10184 | 4927 ft | 200 kts | 124° |
| 2026-05-04 19:11 | 48.97926 | 2.11893 | 4967 ft | 189 kts | 114° |
| 2026-05-04 19:11 | 48.97489 | 2.13685 | 4986 ft | 170 kts | 104° |
| 2026-05-04 19:11 | 48.97255 | 2.15326 | 4928 ft | 151 kts | 92° |
| 2026-05-04 19:12 | 48.97180 | 2.16911 | 4967 ft | 149 kts | 86° |
| 2026-05-04 19:12 | 48.97376 | 2.19898 | 4931 ft | 140 kts | 82° |
| 2026-05-04 19:12 | 48.97469 | 2.21366 | 4768 ft | 139 kts | 82° |
| 2026-05-04 19:13 | 48.97570 | 2.22832 | 4593 ft | 138 kts | 84° |
| 2026-05-04 19:13 | 48.97651 | 2.24288 | 4414 ft | 137 kts | 86° |
| 2026-05-04 19:13 | 48.97725 | 2.25730 | 4212 ft | 138 kts | 85° |
| 2026-05-04 19:13 | 48.97785 | 2.27187 | 4019 ft | 136 kts | 82° |
| 2026-05-04 19:14 | 48.97856 | 2.28613 | 3863 ft | 136 kts | 83° |
| 2026-05-04 19:14 | 48.97936 | 2.30050 | 3661 ft | 136 kts | 83° |
| 2026-05-04 19:14 | 48.98004 | 2.31491 | 3479 ft | 135 kts | 81° |
| 2026-05-04 19:14 | 48.98076 | 2.32909 | 3288 ft | 134 kts | 82° |
| 2026-05-04 19:15 | 48.98146 | 2.34331 | 3131 ft | 134 kts | 84° |
| 2026-05-04 19:15 | 48.98220 | 2.35750 | 2953 ft | 134 kts | 84° |
| 2026-05-04 19:15 | 48.98286 | 2.37159 | 2769 ft | 133 kts | 82° |
| 2026-05-04 19:15 | 48.98360 | 2.38570 | 2604 ft | 134 kts | 85° |
| 2026-05-04 19:16 | 48.98433 | 2.39981 | 2425 ft | 133 kts | 83° |
| 2026-05-04 19:16 | 48.98500 | 2.41384 | 2258 ft | 135 kts | 83° |
| 2026-05-04 19:16 | 48.98567 | 2.42817 | 2079 ft | 135 kts | 82° |
| 2026-05-04 19:16 | 48.98644 | 2.44250 | 1885 ft | 137 kts | 82° |
| 2026-05-04 19:17 | 48.98724 | 2.45703 | 1709 ft | 138 kts | 82° |
| 2026-05-04 19:17 | 48.98801 | 2.47148 | 1536 ft | 137 kts | 84° |
| 2026-05-04 19:17 | 48.98873 | 2.48584 | 1353 ft | 136 kts | 85° |
| 2026-05-04 19:17 | 48.98946 | 2.50034 | 1168 ft | 135 kts | 84° |
| 2026-05-04 19:18 | 48.99023 | 2.51459 | 984 ft | 134 kts | 85° |
| 2026-05-04 19:18 | 48.99089 | 2.52861 | 819 ft | 134 kts | 83° |
| 2026-05-04 19:18 | 48.99171 | 2.54270 | 641 ft | 132 kts | 84° |
| 2026-05-04 19:18 | 48.99251 | 2.55655 | 462 ft | 131 kts | 85° |
| 2026-05-04 19:19 | 48.99312 | 2.57037 | 324 ft | 124 kts | 87° |
| 2026-05-04 19:19 | 48.99367 | 2.58009 | 324 ft | 65 kts | 87° |
| 2026-05-04 19:19 | 48.99419 | 2.58461 | 322 ft | 28 kts | 68° |
| 2026-05-04 19:19 | 48.99475 | 2.58724 | 323 ft | 24 kts | 65° |
| 2026-05-04 19:20 | 48.99545 | 2.58954 | 321 ft | 22 kts | 64° |
| 2026-05-04 19:20 | 48.99564 | 2.59018 | 322 ft | 0 kts | 65° |
| 2026-05-04 19:20 | 48.99569 | 2.59034 | 322 ft | 5 kts | 65° |
| 2026-05-04 19:20 | 48.99592 | 2.59113 | 322 ft | 9 kts | 66° |
| 2026-05-04 19:21 | 48.99606 | 2.59215 | 322 ft | 10 kts | 83° |
| 2026-05-04 19:21 | 48.99615 | 2.59336 | 323 ft | 12 kts | 83° |
| 2026-05-04 19:21 | 48.99618 | 2.59470 | 323 ft | 13 kts | 86° |
| 2026-05-04 19:21 | 48.99627 | 2.59619 | 321 ft | 15 kts | 77° |
| 2026-05-04 19:22 | 48.99717 | 2.59687 | 321 ft | 15 kts | 354° |
| 2026-05-04 19:22 | 48.99824 | 2.59672 | 323 ft | 15 kts | 354° |
| 2026-05-04 19:22 | 48.99934 | 2.59657 | 324 ft | 17 kts | 355° |
| 2026-05-04 19:22 | 49.00059 | 2.59644 | 325 ft | 18 kts | 356° |
| 2026-05-04 19:23 | 49.00185 | 2.59629 | 327 ft | 17 kts | 354° |
| 2026-05-04 19:23 | 49.00312 | 2.59615 | 327 ft | 19 kts | 356° |
| 2026-05-04 19:23 | 49.00443 | 2.59597 | 329 ft | 18 kts | 353° |
| 2026-05-04 19:23 | 49.00571 | 2.59579 | 330 ft | 19 kts | 355° |
| 2026-05-04 19:24 | 49.00728 | 2.59562 | 331 ft | 24 kts | 354° |
| 2026-05-04 19:24 | 49.00889 | 2.59543 | 333 ft | 22 kts | 355° |
| 2026-05-04 19:24 | 49.01005 | 2.59453 | 333 ft | 20 kts | 270° |
| 2026-05-04 19:24 | 49.00989 | 2.59239 | 333 ft | 20 kts | 264° |
| 2026-05-04 19:25 | 49.00967 | 2.59030 | 333 ft | 19 kts | 252° |
| 2026-05-04 19:25 | 49.00946 | 2.58838 | 336 ft | 18 kts | 266° |
| 2026-05-04 19:25 | 49.00936 | 2.58644 | 335 ft | 18 kts | 265° |
| 2026-05-04 19:25 | 49.00925 | 2.58446 | 335 ft | 19 kts | 265° |
| 2026-05-04 19:26 | 49.00914 | 2.58238 | 335 ft | 19 kts | 264° |
| 2026-05-04 19:26 | 49.00903 | 2.58038 | 337 ft | 19 kts | 265° |
| 2026-05-04 19:26 | 49.00893 | 2.57841 | 337 ft | 14 kts | 265° |
| 2026-05-04 19:26 | 49.00866 | 2.57741 | 337 ft | 6 kts | 213° |
| 2026-05-04 19:27 | 49.00818 | 2.57731 | 336 ft | 2 kts | 183° |
| 2026-05-04 19:27 | 49.00816 | 2.57731 | 336 ft | 0 kts | 183° |
| 2026-05-04 19:27 | 49.00810 | 2.57727 | 336 ft | 2 kts | 208° |
| 2026-05-04 19:27 | 49.00787 | 2.57703 | 336 ft | 7 kts | 214° |
| 2026-05-04 19:28 | 49.00732 | 2.57670 | 335 ft | 11 kts | 188° |
| 2026-05-04 19:28 | 49.00686 | 2.57714 | 334 ft | 7 kts | 120° |
| 2026-05-04 19:28 | 49.00667 | 2.57761 | 334 ft | 0 kts | 122° |